sensor_id;sensor_type;location;lat;lon;timestamp;pressure;altitude;pressure_sealevel;temperature;humidity
39793;BME280;26080;42.264;24.536;2022-10-26T00:00:23;99557.38;;;13.69;100.00
39793;BME280;26080;42.264;24.536;2022-10-26T00:02:50;99584.38;;;14.04;100.00
39793;BME280;26080;42.264;24.536;2022-10-26T00:05:17;99566.97;;;14.02;100.00
39793;BME280;26080;42.264;24.536;2022-10-26T00:07:43;99582.22;;;14.11;100.00
39793;BME280;26080;42.264;24.536;2022-10-26T00:10:09;99578.59;;;14.13;100.00
39793;BME280;26080;42.264;24.536;2022-10-26T00:12:34;99557.00;;;14.07;100.00
39793;BME280;26080;42.264;24.536;2022-10-26T00:14:59;99582.28;;;14.25;100.00
39793;BME280;26080;42.264;24.536;2022-10-26T00:17:25;99560.19;;;14.28;100.00
39793;BME280;26080;42.264;24.536;2022-10-26T00:19:50;99587.50;;;14.57;100.00
39793;BME280;26080;42.264;24.536;2022-10-26T00:22:15;99595.88;;;14.63;100.00
39793;BME280;26080;42.264;24.536;2022-10-26T00:24:41;99595.78;;;14.65;100.00
39793;BME280;26080;42.264;24.536;2022-10-26T00:27:06;99585.97;;;14.52;100.00
39793;BME280;26080;42.264;24.536;2022-10-26T00:29:32;99601.97;;;14.49;100.00
39793;BME280;26080;42.264;24.536;2022-10-26T00:31:57;99592.38;;;14.48;100.00
39793;BME280;26080;42.264;24.536;2022-10-26T00:34:23;99586.50;;;14.43;100.00
39793;BME280;26080;42.264;24.536;2022-10-26T00:36:48;99587.19;;;14.47;100.00
39793;BME280;26080;42.264;24.536;2022-10-26T00:39:13;99586.91;;;14.51;100.00
39793;BME280;26080;42.264;24.536;2022-10-26T00:41:39;99585.97;;;14.52;100.00
39793;BME280;26080;42.264;24.536;2022-10-26T00:49:55;99584.81;;;14.42;100.00
39793;BME280;26080;42.264;24.536;2022-10-26T00:52:22;99583.88;;;14.43;100.00
39793;BME280;26080;42.264;24.536;2022-10-26T00:54:48;99587.03;;;14.34;100.00
39793;BME280;26080;42.264;24.536;2022-10-26T00:57:15;99585.53;;;14.30;100.00
39793;BME280;26080;42.264;24.536;2022-10-26T00:59:42;99598.59;;;14.32;100.00
39793;BME280;26080;42.264;24.536;2022-10-26T01:02:09;99591.34;;;14.35;100.00
39793;BME280;26080;42.264;24.536;2022-10-26T01:04:35;99590.59;;;14.33;100.00
39793;BME280;26080;42.264;24.536;2022-10-26T01:07:02;99585.44;;;14.32;100.00
39793;BME280;26080;42.264;24.536;2022-10-26T01:09:28;99589.19;;;14.28;100.00
39793;BME280;26080;42.264;24.536;2022-10-26T01:11:54;99590.03;;;14.28;100.00
39793;BME280;26080;42.264;24.536;2022-10-26T01:14:20;99585.53;;;14.30;100.00
39793;BME280;26080;42.264;24.536;2022-10-26T01:25:21;99590.78;;;14.30;100.00
39793;BME280;26080;42.264;24.536;2022-10-26T01:27:53;99583.63;;;14.32;100.00
39793;BME280;26080;42.264;24.536;2022-10-26T01:33:36;99581.81;;;14.18;100.00
39793;BME280;26080;42.264;24.536;2022-10-26T01:41:12;99584.66;;;14.00;100.00
39793;BME280;26080;42.264;24.536;2022-10-26T01:43:49;99577.34;;;13.89;100.00
39793;BME280;26080;42.264;24.536;2022-10-26T01:46:17;99575.00;;;13.84;100.00
39793;BME280;26080;42.264;24.536;2022-10-26T01:48:44;99580.84;;;13.89;100.00
39793;BME280;26080;42.264;24.536;2022-10-26T01:51:11;99581.44;;;13.79;100.00
39793;BME280;26080;42.264;24.536;2022-10-26T01:53:43;99585.00;;;13.78;100.00
39793;BME280;26080;42.264;24.536;2022-10-26T01:56:16;99568.84;;;13.68;100.00
39793;BME280;26080;42.264;24.536;2022-10-26T02:03:57;99566.41;;;13.49;100.00
39793;BME280;26080;42.264;24.536;2022-10-26T02:06:45;99566.22;;;13.37;100.00
39793;BME280;26080;42.264;24.536;2022-10-26T02:09:31;99560.72;;;13.08;100.00
39793;BME280;26080;42.264;24.536;2022-10-26T02:14:56;99523.69;;;12.80;100.00
39793;BME280;26080;42.264;24.536;2022-10-26T02:20:39;99564.38;;;13.05;100.00
39793;BME280;26080;42.264;24.536;2022-10-26T02:23:06;99556.66;;;13.02;100.00
39793;BME280;26080;42.264;24.536;2022-10-26T02:25:38;99579.50;;;13.18;100.00
39793;BME280;26080;42.264;24.536;2022-10-26T02:28:07;99566.34;;;13.18;100.00
39793;BME280;26080;42.264;24.536;2022-10-26T02:30:35;99576.09;;;13.16;100.00
39793;BME280;26080;42.264;24.536;2022-10-26T02:33:03;99567.22;;;13.18;100.00
39793;BME280;26080;42.264;24.536;2022-10-26T02:35:32;99575.88;;;13.20;100.00
39793;BME280;26080;42.264;24.536;2022-10-26T02:38:06;99549.28;;;13.09;100.00
39793;BME280;26080;42.264;24.536;2022-10-26T02:40:34;99580.66;;;13.12;100.00
39793;BME280;26080;42.264;24.536;2022-10-26T02:43:05;99585.56;;;13.02;100.00
39793;BME280;26080;42.264;24.536;2022-10-26T02:45:40;99579.38;;;13.03;100.00
39793;BME280;26080;42.264;24.536;2022-10-26T02:48:07;99585.69;;;13.17;100.00
39793;BME280;26080;42.264;24.536;2022-10-26T02:51:01;99593.00;;;13.27;100.00
39793;BME280;26080;42.264;24.536;2022-10-26T02:56:15;99589.44;;;13.28;100.00
39793;BME280;26080;42.264;24.536;2022-10-26T02:58:45;99595.41;;;13.32;100.00
39793;BME280;26080;42.264;24.536;2022-10-26T03:01:12;99588.38;;;13.32;100.00
39793;BME280;26080;42.264;24.536;2022-10-26T03:03:38;99599.75;;;13.33;100.00
39793;BME280;26080;42.264;24.536;2022-10-26T03:06:04;99599.84;;;13.31;100.00
39793;BME280;26080;42.264;24.536;2022-10-26T03:08:29;99598.03;;;13.15;100.00
39793;BME280;26080;42.264;24.536;2022-10-26T03:10:55;99595.66;;;13.10;100.00
39793;BME280;26080;42.264;24.536;2022-10-26T03:13:22;99596.84;;;13.04;100.00
39793;BME280;26080;42.264;24.536;2022-10-26T03:15:47;99600.72;;;12.97;100.00
39793;BME280;26080;42.264;24.536;2022-10-26T03:18:12;99608.84;;;12.93;100.00
39793;BME280;26080;42.264;24.536;2022-10-26T03:20:38;99588.03;;;12.88;100.00
39793;BME280;26080;42.264;24.536;2022-10-26T03:23:03;99613.31;;;13.08;100.00
39793;BME280;26080;42.264;24.536;2022-10-26T03:25:29;99605.81;;;13.00;100.00
39793;BME280;26080;42.264;24.536;2022-10-26T03:28:02;99609.91;;;13.06;100.00
39793;BME280;26080;42.264;24.536;2022-10-26T03:30:29;99609.38;;;12.99;100.00
39793;BME280;26080;42.264;24.536;2022-10-26T03:32:54;99610.22;;;13.00;100.00
39793;BME280;26080;42.264;24.536;2022-10-26T03:35:20;99615.19;;;13.06;100.00
39793;BME280;26080;42.264;24.536;2022-10-26T03:37:46;99576.84;;;13.02;100.00
39793;BME280;26080;42.264;24.536;2022-10-26T03:40:11;99576.41;;;13.43;100.00
39793;BME280;26080;42.264;24.536;2022-10-26T03:42:37;99612.44;;;13.89;100.00
39793;BME280;26080;42.264;24.536;2022-10-26T03:45:04;99588.56;;;13.92;100.00
39793;BME280;26080;42.264;24.536;2022-10-26T03:47:30;99631.75;;;14.20;100.00
39793;BME280;26080;42.264;24.536;2022-10-26T03:49:55;99619.53;;;14.19;100.00
39793;BME280;26080;42.264;24.536;2022-10-26T03:52:21;99617.81;;;14.18;100.00
39793;BME280;26080;42.264;24.536;2022-10-26T03:54:48;99613.06;;;14.09;100.00
39793;BME280;26080;42.264;24.536;2022-10-26T03:57:13;99622.09;;;14.05;100.00
39793;BME280;26080;42.264;24.536;2022-10-26T03:59:39;99615.31;;;14.01;100.00
39793;BME280;26080;42.264;24.536;2022-10-26T04:02:05;99619.56;;;14.03;100.00
39793;BME280;26080;42.264;24.536;2022-10-26T04:04:30;99615.78;;;14.07;100.00
39793;BME280;26080;42.264;24.536;2022-10-26T04:06:56;99624.72;;;14.05;100.00
39793;BME280;26080;42.264;24.536;2022-10-26T04:09:21;99623.59;;;14.09;100.00
39793;BME280;26080;42.264;24.536;2022-10-26T04:11:47;99634.31;;;14.06;100.00
39793;BME280;26080;42.264;24.536;2022-10-26T04:14:12;99601.03;;;13.89;100.00
39793;BME280;26080;42.264;24.536;2022-10-26T04:16:37;99638.56;;;14.08;100.00
39793;BME280;26080;42.264;24.536;2022-10-26T04:19:03;99645.03;;;14.03;100.00
39793;BME280;26080;42.264;24.536;2022-10-26T04:21:29;99643.84;;;13.92;100.00
39793;BME280;26080;42.264;24.536;2022-10-26T04:23:57;99650.44;;;13.84;100.00
39793;BME280;26080;42.264;24.536;2022-10-26T04:26:22;99651.16;;;13.72;100.00
39793;BME280;26080;42.264;24.536;2022-10-26T04:28:47;99643.47;;;13.51;100.00
39793;BME280;26080;42.264;24.536;2022-10-26T04:31:13;99624.75;;;13.24;100.00
39793;BME280;26080;42.264;24.536;2022-10-26T04:33:38;99642.84;;;13.30;100.00
39793;BME280;26080;42.264;24.536;2022-10-26T04:36:04;99662.41;;;13.25;100.00
39793;BME280;26080;42.264;24.536;2022-10-26T04:38:29;99664.28;;;13.23;100.00
39793;BME280;26080;42.264;24.536;2022-10-26T04:40:55;99652.91;;;13.05;100.00
39793;BME280;26080;42.264;24.536;2022-10-26T04:43:20;99669.28;;;13.10;100.00
39793;BME280;26080;42.264;24.536;2022-10-26T04:45:46;99674.97;;;13.02;100.00
39793;BME280;26080;42.264;24.536;2022-10-26T04:48:12;99683.63;;;13.04;100.00
39793;BME280;26080;42.264;24.536;2022-10-26T04:50:38;99670.69;;;13.00;100.00
39793;BME280;26080;42.264;24.536;2022-10-26T04:53:08;99675.34;;;12.95;100.00
39793;BME280;26080;42.264;24.536;2022-10-26T04:55:34;99673.94;;;12.88;100.00
39793;BME280;26080;42.264;24.536;2022-10-26T04:58:00;99654.88;;;12.67;100.00
39793;BME280;26080;42.264;24.536;2022-10-26T05:00:26;99686.47;;;12.83;100.00
39793;BME280;26080;42.264;24.536;2022-10-26T05:02:58;99683.84;;;12.83;100.00
39793;BME280;26080;42.264;24.536;2022-10-26T05:05:23;99690.03;;;12.82;100.00
39793;BME280;26080;42.264;24.536;2022-10-26T05:07:55;99662.81;;;12.65;100.00
39793;BME280;26080;42.264;24.536;2022-10-26T05:10:21;99701.97;;;12.89;100.00
39793;BME280;26080;42.264;24.536;2022-10-26T05:12:51;99694.38;;;12.83;100.00
39793;BME280;26080;42.264;24.536;2022-10-26T05:15:17;99691.56;;;12.68;100.00
39793;BME280;26080;42.264;24.536;2022-10-26T05:17:42;99700.22;;;12.88;100.00
39793;BME280;26080;42.264;24.536;2022-10-26T05:20:08;99696.50;;;12.74;100.00
39793;BME280;26080;42.264;24.536;2022-10-26T05:22:37;99711.22;;;12.79;100.00
39793;BME280;26080;42.264;24.536;2022-10-26T05:25:03;99705.88;;;12.80;100.00
39793;BME280;26080;42.264;24.536;2022-10-26T05:27:28;99707.50;;;12.83;100.00
39793;BME280;26080;42.264;24.536;2022-10-26T05:29:54;99709.91;;;12.87;100.00
39793;BME280;26080;42.264;24.536;2022-10-26T05:32:19;99712.59;;;12.86;100.00
39793;BME280;26080;42.264;24.536;2022-10-26T05:34:45;99715.22;;;12.86;100.00
39793;BME280;26080;42.264;24.536;2022-10-26T05:37:11;99717.50;;;12.93;100.00
39793;BME280;26080;42.264;24.536;2022-10-26T05:39:36;99717.09;;;13.01;100.00
39793;BME280;26080;42.264;24.536;2022-10-26T05:42:01;99713.31;;;13.07;100.00
39793;BME280;26080;42.264;24.536;2022-10-26T05:44:27;99718.59;;;13.24;100.00
39793;BME280;26080;42.264;24.536;2022-10-26T05:46:52;99714.09;;;13.43;100.00
39793;BME280;26080;42.264;24.536;2022-10-26T05:49:18;99707.16;;;13.58;100.00
39793;BME280;26080;42.264;24.536;2022-10-26T05:51:43;99717.06;;;13.86;100.00
39793;BME280;26080;42.264;24.536;2022-10-26T05:54:09;99692.63;;;14.00;100.00
39793;BME280;26080;42.264;24.536;2022-10-26T05:56:37;99718.00;;;14.32;100.00
39793;BME280;26080;42.264;24.536;2022-10-26T05:59:05;99722.69;;;14.43;100.00
39793;BME280;26080;42.264;24.536;2022-10-26T06:01:56;99724.56;;;14.57;100.00
39793;BME280;26080;42.264;24.536;2022-10-26T06:04:44;99736.41;;;14.79;100.00
39793;BME280;26080;42.264;24.536;2022-10-26T06:07:14;99732.91;;;14.95;100.00
39793;BME280;26080;42.264;24.536;2022-10-26T06:09:41;99714.13;;;14.85;100.00
39793;BME280;26080;42.264;24.536;2022-10-26T06:12:08;99743.97;;;15.16;100.00
39793;BME280;26080;42.264;24.536;2022-10-26T06:14:34;99750.41;;;15.26;100.00
39793;BME280;26080;42.264;24.536;2022-10-26T06:17:37;99752.22;;;15.39;100.00
39793;BME280;26080;42.264;24.536;2022-10-26T06:25:19;99755.88;;;15.67;100.00
39793;BME280;26080;42.264;24.536;2022-10-26T06:28:07;99727.97;;;15.63;100.00
39793;BME280;26080;42.264;24.536;2022-10-26T06:30:41;99745.66;;;15.89;100.00
39793;BME280;26080;42.264;24.536;2022-10-26T06:33:08;99756.31;;;16.02;100.00
39793;BME280;26080;42.264;24.536;2022-10-26T06:38:09;99762.16;;;16.21;100.00
39793;BME280;26080;42.264;24.536;2022-10-26T06:40:38;99761.50;;;16.32;100.00
39793;BME280;26080;42.264;24.536;2022-10-26T06:43:12;99758.81;;;16.46;100.00
39793;BME280;26080;42.264;24.536;2022-10-26T06:45:40;99745.78;;;16.43;100.00
39793;BME280;26080;42.264;24.536;2022-10-26T06:48:13;99761.31;;;16.62;100.00
39793;BME280;26080;42.264;24.536;2022-10-26T06:50:51;99757.72;;;16.63;100.00
39793;BME280;26080;42.264;24.536;2022-10-26T06:53:31;99774.09;;;16.82;100.00
39793;BME280;26080;42.264;24.536;2022-10-26T06:56:00;99768.84;;;16.95;100.00
39793;BME280;26080;42.264;24.536;2022-10-26T06:58:32;99770.16;;;17.02;100.00
39793;BME280;26080;42.264;24.536;2022-10-26T07:00:59;99772.28;;;17.10;100.00
39793;BME280;26080;42.264;24.536;2022-10-26T07:03:24;99771.38;;;17.24;100.00
39793;BME280;26080;42.264;24.536;2022-10-26T07:05:50;99779.00;;;17.28;100.00
39793;BME280;26080;42.264;24.536;2022-10-26T07:08:16;99784.41;;;17.39;100.00
39793;BME280;26080;42.264;24.536;2022-10-26T07:10:42;99782.53;;;17.41;100.00
39793;BME280;26080;42.264;24.536;2022-10-26T07:13:08;99782.50;;;17.54;100.00
39793;BME280;26080;42.264;24.536;2022-10-26T07:15:35;99748.41;;;17.50;100.00
39793;BME280;26080;42.264;24.536;2022-10-26T07:18:02;99763.72;;;17.71;99.08
39793;BME280;26080;42.264;24.536;2022-10-26T07:20:30;99781.31;;;17.85;98.11
39793;BME280;26080;42.264;24.536;2022-10-26T07:22:56;99752.06;;;17.74;98.29
39793;BME280;26080;42.264;24.536;2022-10-26T07:25:23;99778.53;;;17.99;96.77
39793;BME280;26080;42.264;24.536;2022-10-26T07:27:49;99764.94;;;18.04;96.31
39793;BME280;26080;42.264;24.536;2022-10-26T07:30:14;99764.09;;;18.16;95.01
39793;BME280;26080;42.264;24.536;2022-10-26T07:32:40;99740.56;;;18.12;94.87
39793;BME280;26080;42.264;24.536;2022-10-26T07:35:06;99765.53;;;18.33;94.97
39793;BME280;26080;42.264;24.536;2022-10-26T07:37:32;99772.19;;;18.39;93.91
39793;BME280;26080;42.264;24.536;2022-10-26T07:39:57;99770.91;;;18.44;92.80
39793;BME280;26080;42.264;24.536;2022-10-26T07:42:22;99776.28;;;18.55;91.35
39793;BME280;26080;42.264;24.536;2022-10-26T07:44:48;99777.34;;;18.66;90.74
39793;BME280;26080;42.264;24.536;2022-10-26T07:47:14;99774.28;;;18.83;89.47
39793;BME280;26080;42.264;24.536;2022-10-26T07:49:39;99765.13;;;18.87;88.69
39793;BME280;26080;42.264;24.536;2022-10-26T07:52:05;99766.16;;;18.97;87.91
39793;BME280;26080;42.264;24.536;2022-10-26T07:54:31;99751.19;;;18.96;88.71
39793;BME280;26080;42.264;24.536;2022-10-26T07:56:56;99762.84;;;19.17;87.33
39793;BME280;26080;42.264;24.536;2022-10-26T07:59:22;99762.16;;;19.27;85.80
39793;BME280;26080;42.264;24.536;2022-10-26T08:01:48;99759.13;;;19.31;86.13
39793;BME280;26080;42.264;24.536;2022-10-26T08:04:13;99765.09;;;19.35;86.57
39793;BME280;26080;42.264;24.536;2022-10-26T08:06:39;99757.59;;;19.40;84.50
39793;BME280;26080;42.264;24.536;2022-10-26T08:09:04;99752.81;;;19.56;82.21
39793;BME280;26080;42.264;24.536;2022-10-26T08:11:30;99732.03;;;19.50;82.74
39793;BME280;26080;42.264;24.536;2022-10-26T08:13:55;99727.94;;;19.57;80.71
39793;BME280;26080;42.264;24.536;2022-10-26T08:16:21;99747.78;;;19.75;80.99
39793;BME280;26080;42.264;24.536;2022-10-26T08:18:48;99756.59;;;19.87;79.79
39793;BME280;26080;42.264;24.536;2022-10-26T08:21:14;99745.38;;;19.95;79.52
39793;BME280;26080;42.264;24.536;2022-10-26T08:23:41;99731.81;;;19.87;79.68
39793;BME280;26080;42.264;24.536;2022-10-26T08:26:07;99745.63;;;20.03;79.16
39793;BME280;26080;42.264;24.536;2022-10-26T08:28:35;99744.03;;;20.11;78.59
39793;BME280;26080;42.264;24.536;2022-10-26T08:31:00;99744.41;;;20.18;77.93
39793;BME280;26080;42.264;24.536;2022-10-26T08:33:26;99739.78;;;20.31;78.13
39793;BME280;26080;42.264;24.536;2022-10-26T08:35:59;99743.75;;;20.26;77.66
39793;BME280;26080;42.264;24.536;2022-10-26T08:38:25;99738.94;;;20.31;76.55
39793;BME280;26080;42.264;24.536;2022-10-26T08:40:52;99707.78;;;20.10;75.21
39793;BME280;26080;42.264;24.536;2022-10-26T08:43:30;99737.34;;;20.39;74.78
39793;BME280;26080;42.264;24.536;2022-10-26T08:46:04;99732.75;;;20.41;75.06
39793;BME280;26080;42.264;24.536;2022-10-26T08:48:36;99745.19;;;20.52;73.41
39793;BME280;26080;42.264;24.536;2022-10-26T08:51:14;99738.69;;;20.56;72.70
39793;BME280;26080;42.264;24.536;2022-10-26T08:56:24;99748.19;;;20.70;72.15
39793;BME280;26080;42.264;24.536;2022-10-26T08:58:57;99744.66;;;20.69;72.76
39793;BME280;26080;42.264;24.536;2022-10-26T09:01:24;99742.56;;;20.84;70.55
39793;BME280;26080;42.264;24.536;2022-10-26T09:03:49;99740.50;;;20.88;70.15
39793;BME280;26080;42.264;24.536;2022-10-26T09:14:16;99735.00;;;21.21;67.21
39793;BME280;26080;42.264;24.536;2022-10-26T09:25:19;99714.22;;;21.36;67.61
39793;BME280;26080;42.264;24.536;2022-10-26T09:27:49;99717.09;;;21.44;66.46
39793;BME280;26080;42.264;24.536;2022-10-26T09:30:19;99718.91;;;21.44;66.19
39793;BME280;26080;42.264;24.536;2022-10-26T09:32:49;99713.94;;;21.60;64.40
39793;BME280;26080;42.264;24.536;2022-10-26T09:35:21;99699.03;;;21.48;63.01
39793;BME280;26080;42.264;24.536;2022-10-26T09:38:13;99716.22;;;21.65;65.35
39793;BME280;26080;42.264;24.536;2022-10-26T09:40:47;99706.16;;;21.78;64.54
39793;BME280;26080;42.264;24.536;2022-10-26T09:43:27;99703.69;;;21.86;62.19
39793;BME280;26080;42.264;24.536;2022-10-26T09:45:54;99695.88;;;21.94;61.44
39793;BME280;26080;42.264;24.536;2022-10-26T09:48:32;99709.72;;;22.18;62.27
39793;BME280;26080;42.264;24.536;2022-10-26T09:51:00;99701.28;;;22.13;61.57
39793;BME280;26080;42.264;24.536;2022-10-26T09:53:25;99681.34;;;22.17;60.89
39793;BME280;26080;42.264;24.536;2022-10-26T09:56:03;99697.66;;;22.24;60.28
39793;BME280;26080;42.264;24.536;2022-10-26T09:58:33;99691.63;;;22.22;61.65
39793;BME280;26080;42.264;24.536;2022-10-26T10:01:00;99691.22;;;22.27;60.14
39793;BME280;26080;42.264;24.536;2022-10-26T10:03:28;99690.94;;;22.30;57.69
39793;BME280;26080;42.264;24.536;2022-10-26T10:06:20;99684.47;;;22.32;57.10
39793;BME280;26080;42.264;24.536;2022-10-26T10:09:16;99679.16;;;22.42;57.32
39793;BME280;26080;42.264;24.536;2022-10-26T10:11:55;99682.81;;;22.51;56.70
39793;BME280;26080;42.264;24.536;2022-10-26T10:14:40;99670.19;;;22.62;57.13
39793;BME280;26080;42.264;24.536;2022-10-26T10:17:21;99673.13;;;22.59;56.19
39793;BME280;26080;42.264;24.536;2022-10-26T10:19:47;99668.91;;;22.66;54.24
39793;BME280;26080;42.264;24.536;2022-10-26T10:24:40;99663.59;;;22.76;54.05
39793;BME280;26080;42.264;24.536;2022-10-26T10:27:25;99661.63;;;22.88;49.94
39793;BME280;26080;42.264;24.536;2022-10-26T10:29:54;99652.19;;;23.03;48.78
39793;BME280;26080;42.264;24.536;2022-10-26T10:32:23;99657.09;;;23.17;48.91
39793;BME280;26080;42.264;24.536;2022-10-26T10:34:51;99653.00;;;23.13;50.34
39793;BME280;26080;42.264;24.536;2022-10-26T10:37:24;99649.34;;;23.14;50.19
39793;BME280;26080;42.264;24.536;2022-10-26T10:39:59;99649.31;;;23.33;46.41
39793;BME280;26080;42.264;24.536;2022-10-26T10:42:35;99639.22;;;23.55;47.21
39793;BME280;26080;42.264;24.536;2022-10-26T10:45:02;99630.97;;;23.58;46.11
39793;BME280;26080;42.264;24.536;2022-10-26T10:47:33;99615.38;;;23.44;45.68
39793;BME280;26080;42.264;24.536;2022-10-26T10:52:32;99625.38;;;23.79;44.51
39793;BME280;26080;42.264;24.536;2022-10-26T10:55:07;99621.84;;;23.78;46.04
39793;BME280;26080;42.264;24.536;2022-10-26T11:00:18;99621.16;;;23.76;44.53
39793;BME280;26080;42.264;24.536;2022-10-26T11:19:11;99595.19;;;24.14;40.25
39793;BME280;26080;42.264;24.536;2022-10-26T11:21:43;99593.25;;;24.06;41.39
39793;BME280;26080;42.264;24.536;2022-10-26T11:24:33;99593.44;;;23.95;39.82
39793;BME280;26080;42.264;24.536;2022-10-26T11:27:24;99596.00;;;24.14;39.52
39793;BME280;26080;42.264;24.536;2022-10-26T11:30:20;99589.81;;;24.14;39.15
39793;BME280;26080;42.264;24.536;2022-10-26T11:38:17;99588.00;;;24.32;38.47
39793;BME280;26080;42.264;24.536;2022-10-26T11:40:49;99594.88;;;24.35;36.00
39793;BME280;26080;42.264;24.536;2022-10-26T11:46:12;99590.41;;;24.79;34.12
39793;BME280;26080;42.264;24.536;2022-10-26T11:48:49;99565.94;;;24.74;34.02
39793;BME280;26080;42.264;24.536;2022-10-26T11:51:35;99588.53;;;24.97;33.26
39793;BME280;26080;42.264;24.536;2022-10-26T11:54:09;99590.03;;;24.74;33.95
39793;BME280;26080;42.264;24.536;2022-10-26T11:56:44;99579.81;;;24.69;34.21
39793;BME280;26080;42.264;24.536;2022-10-26T11:59:27;99585.75;;;24.63;34.53
39793;BME280;26080;42.264;24.536;2022-10-26T12:01:57;99577.97;;;24.96;33.46
39793;BME280;26080;42.264;24.536;2022-10-26T12:04:29;99577.56;;;24.83;33.17
39793;BME280;26080;42.264;24.536;2022-10-26T12:06:58;99575.75;;;24.91;33.47
39793;BME280;26080;42.264;24.536;2022-10-26T12:09:30;99577.13;;;24.95;32.44
39793;BME280;26080;42.264;24.536;2022-10-26T12:12:22;99567.00;;;25.07;32.39
39793;BME280;26080;42.264;24.536;2022-10-26T12:15:08;99562.19;;;24.93;32.15
39793;BME280;26080;42.264;24.536;2022-10-26T12:18:13;99573.06;;;24.91;32.84
39793;BME280;26080;42.264;24.536;2022-10-26T12:20:58;99559.13;;;25.05;32.66
39793;BME280;26080;42.264;24.536;2022-10-26T12:23:38;99574.22;;;24.89;33.38
39793;BME280;26080;42.264;24.536;2022-10-26T12:33:58;99567.78;;;24.99;32.03
39793;BME280;26080;42.264;24.536;2022-10-26T12:39:28;99587.28;;;24.66;40.79
39793;BME280;26080;42.264;24.536;2022-10-26T12:45:00;99574.00;;;24.56;41.79
39793;BME280;26080;42.264;24.536;2022-10-26T12:50:24;99580.00;;;24.76;40.13
39793;BME280;26080;42.264;24.536;2022-10-26T12:52:55;99572.13;;;24.74;40.92
39793;BME280;26080;42.264;24.536;2022-10-26T12:55:31;99583.06;;;24.81;40.14
39793;BME280;26080;42.264;24.536;2022-10-26T13:01:13;99578.81;;;24.52;43.24
39793;BME280;26080;42.264;24.536;2022-10-26T13:09:07;99587.91;;;24.24;45.30
39793;BME280;26080;42.264;24.536;2022-10-26T13:11:35;99581.84;;;24.22;45.43
39793;BME280;26080;42.264;24.536;2022-10-26T13:14:19;99580.72;;;24.24;45.43
39793;BME280;26080;42.264;24.536;2022-10-26T13:16:46;99584.69;;;24.20;45.37
39793;BME280;26080;42.264;24.536;2022-10-26T13:19:29;99583.84;;;24.20;46.55
39793;BME280;26080;42.264;24.536;2022-10-26T13:21:58;99581.78;;;24.14;46.04
39793;BME280;26080;42.264;24.536;2022-10-26T13:24:25;99583.25;;;24.26;45.35
39793;BME280;26080;42.264;24.536;2022-10-26T13:29:29;99582.38;;;24.08;46.50
39793;BME280;26080;42.264;24.536;2022-10-26T13:31:55;99587.75;;;24.08;46.32
39793;BME280;26080;42.264;24.536;2022-10-26T13:34:24;99587.38;;;24.03;46.41
39793;BME280;26080;42.264;24.536;2022-10-26T13:39:37;99591.69;;;23.86;48.30
39793;BME280;26080;42.264;24.536;2022-10-26T13:42:06;99563.91;;;23.69;47.62
39793;BME280;26080;42.264;24.536;2022-10-26T13:47:24;99599.84;;;23.84;47.85
39793;BME280;26080;42.264;24.536;2022-10-26T13:49:55;99597.75;;;23.88;47.50
39793;BME280;26080;42.264;24.536;2022-10-26T13:52:33;99597.59;;;23.89;47.91
39793;BME280;26080;42.264;24.536;2022-10-26T13:55:17;99596.91;;;23.87;49.02
39793;BME280;26080;42.264;24.536;2022-10-26T14:00:37;99594.63;;;23.65;49.23
39793;BME280;26080;42.264;24.536;2022-10-26T14:03:17;99605.47;;;23.63;50.73
39793;BME280;26080;42.264;24.536;2022-10-26T14:05:48;99600.22;;;23.72;49.73
39793;BME280;26080;42.264;24.536;2022-10-26T14:08:16;99607.00;;;23.66;49.21
39793;BME280;26080;42.264;24.536;2022-10-26T14:10:52;99613.19;;;23.57;49.89
39793;BME280;26080;42.264;24.536;2022-10-26T14:13:21;99610.13;;;23.52;50.26
39793;BME280;26080;42.264;24.536;2022-10-26T14:15:47;99605.63;;;23.62;49.45
39793;BME280;26080;42.264;24.536;2022-10-26T14:18:24;99613.78;;;23.51;50.13
39793;BME280;26080;42.264;24.536;2022-10-26T14:21:05;99620.59;;;23.45;51.34
39793;BME280;26080;42.264;24.536;2022-10-26T14:23:47;99620.31;;;23.39;51.75
39793;BME280;26080;42.264;24.536;2022-10-26T14:26:39;99628.56;;;23.18;53.56
39793;BME280;26080;42.264;24.536;2022-10-26T14:29:17;99632.38;;;22.96;54.04
39793;BME280;26080;42.264;24.536;2022-10-26T14:31:43;99624.38;;;22.76;54.90
39793;BME280;26080;42.264;24.536;2022-10-26T14:34:09;99638.84;;;22.84;55.15
39793;BME280;26080;42.264;24.536;2022-10-26T14:36:43;99643.34;;;22.83;54.54
39793;BME280;26080;42.264;24.536;2022-10-26T14:41:38;99650.38;;;22.84;54.22
39793;BME280;26080;42.264;24.536;2022-10-26T14:44:15;99643.75;;;22.79;53.60
39793;BME280;26080;42.264;24.536;2022-10-26T14:46:42;99652.06;;;22.66;54.09
39793;BME280;26080;42.264;24.536;2022-10-26T14:49:19;99656.69;;;22.64;54.34
39793;BME280;26080;42.264;24.536;2022-10-26T14:51:47;99648.00;;;22.52;54.50
39793;BME280;26080;42.264;24.536;2022-10-26T14:54:22;99626.63;;;22.23;55.25
39793;BME280;26080;42.264;24.536;2022-10-26T14:56:48;99631.78;;;22.05;56.61
39793;BME280;26080;42.264;24.536;2022-10-26T14:59:24;99656.28;;;21.99;57.53
39793;BME280;26080;42.264;24.536;2022-10-26T15:01:55;99662.00;;;21.85;57.92
39793;BME280;26080;42.264;24.536;2022-10-26T15:09:46;99667.38;;;21.54;58.02
39793;BME280;26080;42.264;24.536;2022-10-26T15:12:32;99668.72;;;21.49;58.02
39793;BME280;26080;42.264;24.536;2022-10-26T15:17:41;99682.66;;;21.32;58.58
39793;BME280;26080;42.264;24.536;2022-10-26T15:20:14;99666.69;;;21.11;58.79
39793;BME280;26080;42.264;24.536;2022-10-26T15:22:41;99680.94;;;21.10;58.97